Burbank, CA

07:35 PM PST am 23. Februar 2017 (GMT -0800)
Burbank-Glendale-Pasadena | | Change Station

Höhe 778 ft 34.20 °N, 118.36 °W | Updated 42 minutes ago

Heiter
Heiter
50 °F
gefühlte 50 °F
N
12
Wind Wechselnd Wind aus Nord

Heute
Max. -- | schwach -- °F
--% Regenrisiko
Gestern
Max. -- | schwach -- °F
Precip. -- inch
Druck 30.04 inch
Sichtweite 10.0 Meilen
Wolken Heiter
Taupunkt 16 °F
Feuchtigkeit 26%
Regen 0.00 inch
Schneehöhe Nicht verfügbar..
6:29 AM 5:44 PM
Letztes Viertel, 7% visible
METAR KBUR 240253Z 35010KT 10SM CLR 10/M09 A3006 RMK AO2 SLP173 T01001089 53013 $
Druck 30.04 inch
Sichtweite 10.0 Meilen
Wolken Heiter
Taupunkt 16 °F
Feuchtigkeit 26%
Regen 0.00 inch
Schneehöhe Nicht verfügbar..
6:29 AM 5:44 PM
Letztes Viertel, 7% visible
METAR KBUR 240253Z 35010KT 10SM CLR 10/M09 A3006 RMK AO2 SLP173 T01001089 53013 $

Get Your Daily Forecast Email!

Thanks for signing up!

Be on the lookout for a verification email in your inbox.

You'll start receiving the daily forecast at 8 AM.

×

10-Day Weather Forecast

Almanac

Astronomie

Feb. 23, 2017 Aufgang Untergang
Genaue Zeit
Bürgerliche Dämmerung
Nautische Dämmerung
Astronomische Dämmerung
Mond
Länge des sichtbaren Lichts
Tageslänge
Tomorrow will be .
, % of the Moon is Illuminated

Heutige Rekorde

State Highs State Lows

Community

WunderPhotos

Upload Photos

1,962,540 Fotos hochgeladen!

WunderBlog® & News

Nearby

Luftqualität

  Luftqualität LQ Index Schadstoff
Not available.

Schneehöhe

Station Depth Höhe

Erdbebenaktivität

Stadt Distance Mag. Time & Date
Minimum magnitude displayed is 2.5.

küstennahe Wassertemperaturen

Ort Temperatur

Stations

Wetterstationen in der Umgebung

Stationsstandort Temp. Windchill Taupunkt Feuchtigkeit Wind Precip. Höhe Aktualisiert Art
                   

Watches & Warnings

There are currently no watches in effect.